METAR Data
IDs: Format: Raw Decoded Include TAF

Data at: 0716 UTC 07 Dec 2022

USTR 070700Z 22005MPS CAVOK M21/M24 Q1037 R21/420160 R30/450155 NOSIG